createdAt,value
2019-02-25T00:03:06.860Z,9.53
2019-02-25T00:08:13.984Z,10.60
2019-02-25T00:13:19.811Z,10.17
2019-02-25T00:18:25.471Z,10.67
2019-02-25T00:23:31.011Z,10.13
2019-02-25T00:28:36.740Z,10.33
2019-02-25T00:33:42.612Z,10.37
2019-02-25T00:38:48.564Z,10.73
2019-02-25T00:43:54.279Z,10.63
2019-02-25T00:49:01.017Z,9.87
2019-02-25T00:54:08.011Z,10.40
2019-02-25T00:59:13.915Z,9.63
2019-02-25T01:04:19.699Z,10.03
2019-02-25T01:09:26.218Z,9.37
2019-02-25T01:14:31.930Z,10.43
2019-02-25T01:19:38.067Z,9.97
2019-02-25T01:24:43.811Z,10.70
2019-02-25T01:29:49.546Z,10.07
2019-02-25T01:34:55.353Z,10.33
2019-02-25T01:40:01.097Z,10.20
2019-02-25T01:45:14.950Z,10.47
2019-02-25T01:50:20.876Z,10.33
2019-02-25T01:55:26.447Z,10.37
2019-02-25T02:00:33.572Z,10.97
2019-02-25T02:05:39.510Z,10.90
2019-02-25T02:10:45.144Z,10.73
2019-02-25T02:15:50.795Z,10.60
2019-02-25T02:20:56.715Z,11.30
2019-02-25T02:26:02.467Z,10.77
2019-02-25T02:31:08.423Z,10.23
2019-02-25T02:36:14.252Z,10.40
2019-02-25T02:41:20.787Z,10.80
2019-02-25T02:46:35.160Z,11.17
2019-02-25T02:51:40.720Z,10.90
2019-02-25T02:56:46.305Z,10.17
2019-02-25T03:01:51.948Z,10.63
2019-02-25T03:06:59.215Z,9.33
2019-02-25T03:12:04.866Z,11.00
2019-02-25T03:17:10.819Z,11.83
2019-02-25T03:22:16.820Z,10.17
2019-02-25T03:27:24.071Z,9.30
2019-02-25T03:32:29.834Z,10.23
2019-02-25T03:37:36.224Z,10.13
2019-02-25T03:42:41.887Z,10.50
2019-02-25T03:47:48.137Z,9.97
2019-02-25T03:52:53.693Z,11.00
2019-02-25T03:57:59.498Z,10.70
2019-02-25T04:03:06.205Z,10.77
2019-02-25T04:08:11.961Z,10.00
2019-02-25T04:13:17.500Z,10.73
2019-02-25T04:18:23.349Z,10.00
2019-02-25T04:23:31.128Z,10.87
2019-02-25T04:28:36.690Z,11.30
2019-02-25T04:33:42.329Z,10.17
2019-02-25T04:38:47.886Z,10.50
2019-02-25T04:43:53.575Z,10.83
2019-02-25T04:48:59.121Z,10.60
2019-02-25T04:54:04.772Z,10.57
2019-02-25T04:59:10.766Z,11.03
2019-02-25T05:04:16.934Z,11.53
2019-02-25T05:09:22.659Z,10.67
2019-02-25T05:14:28.477Z,10.87
2019-02-25T05:19:34.028Z,10.60
2019-02-25T05:24:39.674Z,10.80
2019-02-25T05:29:45.294Z,10.83
2019-02-25T05:34:50.905Z,11.27
2019-02-25T05:39:56.576Z,10.50
2019-02-25T05:45:04.496Z,10.10
2019-02-25T05:50:14.115Z,11.13
2019-02-25T05:55:21.878Z,12.20
2019-02-25T06:00:29.061Z,12.37
2019-02-25T06:05:34.620Z,11.17
2019-02-25T06:10:40.188Z,10.77
2019-02-25T06:15:45.819Z,11.70
2019-02-25T06:20:51.682Z,11.07
2019-02-25T06:25:57.321Z,11.07
2019-02-25T06:31:03.591Z,11.63
2019-02-25T06:36:10.500Z,11.93
2019-02-25T06:41:16.149Z,12.90
2019-02-25T06:46:23.307Z,11.80
2019-02-25T06:51:30.507Z,12.60
2019-02-25T06:56:37.969Z,12.50
2019-02-25T07:01:45.402Z,12.33
2019-02-25T07:06:59.207Z,11.47
2019-02-25T07:12:08.307Z,11.57
2019-02-25T07:17:34.263Z,12.13
2019-02-25T07:22:42.088Z,11.90
2019-02-25T07:27:49.692Z,12.67
2019-02-25T07:33:14.637Z,12.67
2019-02-25T07:38:23.935Z,12.67
2019-02-25T07:43:47.372Z,12.27
2019-02-25T07:49:12.887Z,12.70
2019-02-25T07:54:26.042Z,13.13
2019-02-25T07:59:33.259Z,13.80
2019-02-25T08:04:41.430Z,14.27
2019-02-25T08:09:57.359Z,12.77
2019-02-25T08:15:11.055Z,14.83
2019-02-25T08:20:18.365Z,14.20
2019-02-25T08:25:25.816Z,14.33
2019-02-25T08:30:34.012Z,16.10
2019-02-25T08:35:53.085Z,14.93
2019-02-25T08:41:17.126Z,15.33
2019-02-25T08:46:27.669Z,15.73
2019-02-25T08:51:35.151Z,15.53
2019-02-25T08:56:41.597Z,15.13
2019-02-25T09:01:48.576Z,15.63
2019-02-25T09:06:54.224Z,17.43
2019-02-25T09:12:01.370Z,17.53
2019-02-25T09:17:07.976Z,17.73
2019-02-25T09:22:13.980Z,18.53
2019-02-25T09:27:19.610Z,18.93
2019-02-25T09:32:26.443Z,18.50
2019-02-25T09:37:33.097Z,19.73
2019-02-25T09:42:39.988Z,20.30
2019-02-25T09:47:45.605Z,20.60
2019-02-25T09:52:51.733Z,22.63
2019-02-25T09:57:58.174Z,21.57
2019-02-25T10:03:03.751Z,24.70
2019-02-25T10:08:10.497Z,24.03
2019-02-25T10:13:17.469Z,33.43
2019-02-25T10:18:24.056Z,24.63
2019-02-25T10:23:29.694Z,24.77
2019-02-25T10:28:35.385Z,25.27
2019-02-25T10:33:42.517Z,25.37
2019-02-25T10:38:48.649Z,25.87
2019-02-25T10:43:54.789Z,25.10
2019-02-25T10:49:10.939Z,26.47
2019-02-25T10:54:09.125Z,23.83
2019-02-25T10:59:15.947Z,25.37
2019-02-25T11:04:23.921Z,31.73
2019-02-25T11:09:32.715Z,25.13
2019-02-25T11:14:40.919Z,25.77
2019-02-25T11:19:46.198Z,26.33
2019-02-25T11:24:53.506Z,24.30
2019-02-25T11:30:00.956Z,24.87
2019-02-25T11:35:10.685Z,24.90
2019-02-25T11:40:17.518Z,24.97
2019-02-25T11:45:25.093Z,26.07
2019-02-25T11:50:31.611Z,24.97
2019-02-25T11:55:39.721Z,26.50
2019-02-25T12:00:46.383Z,26.27
2019-02-25T12:05:53.579Z,24.67
2019-02-25T12:10:59.476Z,24.93
2019-02-25T12:16:06.086Z,25.27
2019-02-25T12:21:14.253Z,27.47
2019-02-25T12:26:20.963Z,25.87
2019-02-25T12:31:29.406Z,27.90
2019-02-25T12:36:37.084Z,25.07
2019-02-25T12:41:45.125Z,24.20
2019-02-25T12:46:53.254Z,23.87
2019-02-25T12:52:00.268Z,23.60
2019-02-25T12:57:07.219Z,22.83
2019-02-25T13:02:13.643Z,23.43
2019-02-25T13:07:19.722Z,23.83
2019-02-25T13:12:26.778Z,24.00
2019-02-25T13:17:33.199Z,23.50
2019-02-25T13:22:40.584Z,22.70
2019-02-25T13:27:46.484Z,22.10
2019-02-25T13:32:53.397Z,21.20
2019-02-25T13:37:59.833Z,21.13
2019-02-25T13:43:06.111Z,21.87
2019-02-25T13:48:11.999Z,20.77
2019-02-25T13:53:19.431Z,21.03
2019-02-25T13:58:25.394Z,19.23
2019-02-25T14:03:31.073Z,19.80
2019-02-25T14:08:36.885Z,19.10
2019-02-25T14:13:45.210Z,18.90
2019-02-25T14:18:52.310Z,18.10
2019-02-25T14:23:59.839Z,18.97
2019-02-25T14:29:08.022Z,19.77
2019-02-25T14:34:15.629Z,17.93
2019-02-25T14:39:27.569Z,19.03
2019-02-25T14:44:35.387Z,16.53
2019-02-25T14:49:42.946Z,18.13
2019-02-25T14:54:48.802Z,17.90
2019-02-25T14:59:55.814Z,17.50
2019-02-25T15:05:03.031Z,17.90
2019-02-25T15:10:11.128Z,16.80
2019-02-25T15:15:25.183Z,16.97
2019-02-25T15:20:31.450Z,17.47
2019-02-25T15:25:42.117Z,17.17
2019-02-25T15:30:47.104Z,17.27
2019-02-25T15:35:54.596Z,17.93
2019-02-25T15:41:04.428Z,17.70
2019-02-25T15:46:12.395Z,17.10
2019-02-25T15:51:20.375Z,17.47
2019-02-25T15:56:33.361Z,17.80
2019-02-25T16:01:39.141Z,18.13
2019-02-25T16:06:45.976Z,17.37
2019-02-25T16:11:55.367Z,15.67
2019-02-25T16:17:01.667Z,15.37
2019-02-25T16:22:11.760Z,14.67
2019-02-25T16:27:21.075Z,14.80
2019-02-25T16:32:27.729Z,14.70
2019-02-25T16:37:35.565Z,14.40
2019-02-25T16:42:42.631Z,13.80
2019-02-25T16:47:50.963Z,13.97
2019-02-25T16:52:57.863Z,14.60
2019-02-25T16:58:06.164Z,14.10
2019-02-25T17:03:13.793Z,13.93
2019-02-25T17:08:24.004Z,14.80
2019-02-25T17:13:32.495Z,15.17
2019-02-25T17:18:39.845Z,15.50
2019-02-25T17:23:46.399Z,14.90
2019-02-25T17:28:52.528Z,15.97
2019-02-25T17:33:59.383Z,15.70
2019-02-25T17:39:08.728Z,15.50
2019-02-25T17:44:17.864Z,16.80
2019-02-25T17:49:23.185Z,16.70
2019-02-25T17:54:31.228Z,16.50
2019-02-25T17:59:39.265Z,15.73
2019-02-25T18:04:47.115Z,16.57
2019-02-25T18:09:54.906Z,16.27
2019-02-25T18:15:01.484Z,17.43
2019-02-25T18:20:11.923Z,17.03
2019-02-25T18:25:20.489Z,17.73
2019-02-25T18:30:33.314Z,17.73
2019-02-25T18:35:41.629Z,17.47
2019-02-25T18:40:49.223Z,17.73
2019-02-25T18:45:56.320Z,18.37
2019-02-25T18:51:03.639Z,17.57
2019-02-25T18:56:14.151Z,17.90
2019-02-25T19:01:20.714Z,18.90
2019-02-25T19:06:26.607Z,17.80
2019-02-25T19:11:32.840Z,16.83
2019-02-25T19:16:40.041Z,16.97
2019-02-25T19:21:47.860Z,18.20
2019-02-25T19:26:55.016Z,18.77
2019-02-25T19:32:01.693Z,17.63
2019-02-25T19:37:11.930Z,18.63
2019-02-25T19:42:19.785Z,17.73
2019-02-25T19:47:24.605Z,18.90
2019-02-25T19:52:34.742Z,17.03
2019-02-25T19:57:38.659Z,17.53
2019-02-25T20:02:47.981Z,16.00
2019-02-25T20:07:56.522Z,17.43
2019-02-25T20:13:08.515Z,17.60
2019-02-25T20:18:14.347Z,17.90
2019-02-25T20:23:23.983Z,16.40
2019-02-25T20:28:28.235Z,17.33
2019-02-25T20:33:35.200Z,19.70
2019-02-25T20:38:43.796Z,16.80
2019-02-25T20:43:53.971Z,19.77
2019-02-25T20:48:59.937Z,17.50
2019-02-25T20:54:06.113Z,18.23
2019-02-25T20:59:11.745Z,18.10
2019-02-25T21:04:21.794Z,17.67
2019-02-25T21:09:27.304Z,17.57
2019-02-25T21:14:35.671Z,17.07
2019-02-25T21:19:44.285Z,54.70
2019-02-25T21:24:53.974Z,18.10
2019-02-25T21:29:58.985Z,18.03
2019-02-25T21:35:10.214Z,16.30
2019-02-25T21:40:17.606Z,16.73
2019-02-25T21:45:25.166Z,17.10
2019-02-25T21:50:33.533Z,16.67
2019-02-25T21:55:38.509Z,17.10
2019-02-25T22:00:44.474Z,16.97
2019-02-25T22:05:51.744Z,16.13
2019-02-25T22:11:11.647Z,18.43
2019-02-25T22:16:07.915Z,17.40
2019-02-25T22:21:14.179Z,15.97
2019-02-25T22:26:24.121Z,17.77
2019-02-25T22:31:28.724Z,16.33
2019-02-25T22:36:34.719Z,16.70
2019-02-25T22:41:42.297Z,17.53
2019-02-25T22:46:47.949Z,16.73
2019-02-25T22:51:55.767Z,16.57
2019-02-25T22:57:00.962Z,19.27
2019-02-25T23:02:08.773Z,17.27
2019-02-25T23:07:15.240Z,17.93
2019-02-25T23:12:24.276Z,16.73
2019-02-25T23:17:35.100Z,18.13
2019-02-25T23:22:39.588Z,15.27
2019-02-25T23:27:45.555Z,17.10
2019-02-25T23:32:52.362Z,17.33
2019-02-25T23:38:00.861Z,18.47
2019-02-25T23:43:07.487Z,16.87
2019-02-25T23:48:15.214Z,16.73
2019-02-25T23:53:20.788Z,18.23
2019-02-25T23:58:26.638Z,17.23
